sensor_id;sensor_type;location;lat;lon;timestamp;temperature;humidity
26272;DHT22;13997;48.902;12.472;2023-09-07T00:01:16;410.10;2355.20
26272;DHT22;13997;48.902;12.472;2023-09-07T00:03:41;410.10;2355.20
26272;DHT22;13997;48.902;12.472;2023-09-07T00:06:08;410.10;2355.20
26272;DHT22;13997;48.902;12.472;2023-09-07T00:08:34;410.10;2355.20
26272;DHT22;13997;48.902;12.472;2023-09-07T00:11:06;410.10;2355.20
26272;DHT22;13997;48.902;12.472;2023-09-07T00:13:32;410.10;2355.20
26272;DHT22;13997;48.902;12.472;2023-09-07T00:15:59;410.00;2355.20
26272;DHT22;13997;48.902;12.472;2023-09-07T00:18:26;410.00;2355.20
26272;DHT22;13997;48.902;12.472;2023-09-07T00:20:51;409.90;2355.20
26272;DHT22;13997;48.902;12.472;2023-09-07T00:23:17;409.90;2355.20
26272;DHT22;13997;48.902;12.472;2023-09-07T00:25:42;409.80;2355.20
26272;DHT22;13997;48.902;12.472;2023-09-07T00:28:08;409.80;2355.20
26272;DHT22;13997;48.902;12.472;2023-09-07T00:30:33;409.70;2355.20
26272;DHT22;13997;48.902;12.472;2023-09-07T00:32:59;409.70;2355.20
26272;DHT22;13997;48.902;12.472;2023-09-07T00:35:25;409.70;2355.20
26272;DHT22;13997;48.902;12.472;2023-09-07T00:37:51;409.60;2355.20
26272;DHT22;13997;48.902;12.472;2023-09-07T00:40:16;384.90;2329.60
26272;DHT22;13997;48.902;12.472;2023-09-07T00:42:42;384.90;2329.60
26272;DHT22;13997;48.902;12.472;2023-09-07T00:45:08;384.90;2329.60
26272;DHT22;13997;48.902;12.472;2023-09-07T00:47:34;384.90;2329.60
26272;DHT22;13997;48.902;12.472;2023-09-07T00:50:07;384.90;2329.60
26272;DHT22;13997;48.902;12.472;2023-09-07T00:52:33;384.90;2329.60
26272;DHT22;13997;48.902;12.472;2023-09-07T00:55:01;384.80;2329.60
26272;DHT22;13997;48.902;12.472;2023-09-07T00:57:27;384.80;2329.60
26272;DHT22;13997;48.902;12.472;2023-09-07T00:59:52;384.80;2329.60
26272;DHT22;13997;48.902;12.472;2023-09-07T01:02:18;384.70;2329.60
26272;DHT22;13997;48.902;12.472;2023-09-07T01:04:43;384.60;2329.60
26272;DHT22;13997;48.902;12.472;2023-09-07T01:07:20;384.60;2329.60
26272;DHT22;13997;48.902;12.472;2023-09-07T01:09:51;384.50;2329.60
26272;DHT22;13997;48.902;12.472;2023-09-07T01:12:17;384.50;2329.60
26272;DHT22;13997;48.902;12.472;2023-09-07T01:14:42;384.50;2329.60
26272;DHT22;13997;48.902;12.472;2023-09-07T01:17:09;384.40;2329.60
26272;DHT22;13997;48.902;12.472;2023-09-07T01:19:37;384.40;2329.60
26272;DHT22;13997;48.902;12.472;2023-09-07T01:22:03;384.40;2329.60
26272;DHT22;13997;48.902;12.472;2023-09-07T01:24:30;384.30;2329.60
26272;DHT22;13997;48.902;12.472;2023-09-07T01:26:59;384.40;2329.60
26272;DHT22;13997;48.902;12.472;2023-09-07T01:29:25;384.30;2329.60
26272;DHT22;13997;48.902;12.472;2023-09-07T01:31:54;384.30;2329.60
26272;DHT22;13997;48.902;12.472;2023-09-07T01:34:20;384.30;2329.60
26272;DHT22;13997;48.902;12.472;2023-09-07T01:36:46;384.30;2329.60
26272;DHT22;13997;48.902;12.472;2023-09-07T01:39:11;384.20;2329.60
26272;DHT22;13997;48.902;12.472;2023-09-07T01:41:37;384.20;2329.60
26272;DHT22;13997;48.902;12.472;2023-09-07T01:44:03;384.20;2329.60
26272;DHT22;13997;48.902;12.472;2023-09-07T01:46:28;384.10;2329.60
26272;DHT22;13997;48.902;12.472;2023-09-07T01:48:54;384.10;2329.60
26272;DHT22;13997;48.902;12.472;2023-09-07T01:51:19;384.10;2329.60
26272;DHT22;13997;48.902;12.472;2023-09-07T01:53:47;384.00;2329.60
26272;DHT22;13997;48.902;12.472;2023-09-07T01:56:15;384.00;2329.60
26272;DHT22;13997;48.902;12.472;2023-09-07T01:58:40;384.00;2329.60
26272;DHT22;13997;48.902;12.472;2023-09-07T02:01:06;359.30;2329.60
26272;DHT22;13997;48.902;12.472;2023-09-07T02:03:32;359.30;2329.60
26272;DHT22;13997;48.902;12.472;2023-09-07T02:05:57;359.20;2329.60
26272;DHT22;13997;48.902;12.472;2023-09-07T02:08:23;359.20;2329.60
26272;DHT22;13997;48.902;12.472;2023-09-07T02:10:49;359.10;2329.60
26272;DHT22;13997;48.902;12.472;2023-09-07T02:13:14;359.10;2329.60
26272;DHT22;13997;48.902;12.472;2023-09-07T02:15:40;359.10;2329.60
26272;DHT22;13997;48.902;12.472;2023-09-07T02:18:06;359.00;2329.60
26272;DHT22;13997;48.902;12.472;2023-09-07T02:20:34;359.00;2329.60
26272;DHT22;13997;48.902;12.472;2023-09-07T02:23:00;359.00;2329.60
26272;DHT22;13997;48.902;12.472;2023-09-07T02:25:26;359.00;2329.60
26272;DHT22;13997;48.902;12.472;2023-09-07T02:27:53;358.90;2329.60
26272;DHT22;13997;48.902;12.472;2023-09-07T02:30:19;358.90;2329.60
26272;DHT22;13997;48.902;12.472;2023-09-07T02:32:44;358.90;2329.60
26272;DHT22;13997;48.902;12.472;2023-09-07T02:35:10;358.90;2329.60
26272;DHT22;13997;48.902;12.472;2023-09-07T02:37:36;358.80;2329.60
26272;DHT22;13997;48.902;12.472;2023-09-07T02:40:02;358.80;2329.60
26272;DHT22;13997;48.902;12.472;2023-09-07T02:42:32;358.70;2329.60
26272;DHT22;13997;48.902;12.472;2023-09-07T02:44:57;358.70;2329.60
26272;DHT22;13997;48.902;12.472;2023-09-07T02:47:23;358.70;2329.60
26272;DHT22;13997;48.902;12.472;2023-09-07T02:49:48;358.70;2329.60
26272;DHT22;13997;48.902;12.472;2023-09-07T02:52:14;358.70;2329.60
26272;DHT22;13997;48.902;12.472;2023-09-07T02:54:39;358.70;2329.60
26272;DHT22;13997;48.902;12.472;2023-09-07T02:57:07;358.70;2329.60
26272;DHT22;13997;48.902;12.472;2023-09-07T02:59:32;358.70;2329.60
26272;DHT22;13997;48.902;12.472;2023-09-07T03:01:58;358.70;2329.60
26272;DHT22;13997;48.902;12.472;2023-09-07T03:04:24;358.70;2329.60
26272;DHT22;13997;48.902;12.472;2023-09-07T03:06:49;358.70;2329.60
26272;DHT22;13997;48.902;12.472;2023-09-07T03:09:15;358.70;2329.60
26272;DHT22;13997;48.902;12.472;2023-09-07T03:11:41;358.70;2329.60
26272;DHT22;13997;48.902;12.472;2023-09-07T03:14:06;358.70;2329.60
26272;DHT22;13997;48.902;12.472;2023-09-07T03:16:32;358.60;2329.60
26272;DHT22;13997;48.902;12.472;2023-09-07T03:18:57;358.50;2329.60
26272;DHT22;13997;48.902;12.472;2023-09-07T03:21:23;358.50;2329.60
26272;DHT22;13997;48.902;12.472;2023-09-07T03:23:57;358.50;2329.60
26272;DHT22;13997;48.902;12.472;2023-09-07T03:26:25;358.50;2329.60
26272;DHT22;13997;48.902;12.472;2023-09-07T03:28:51;358.50;2329.60
26272;DHT22;13997;48.902;12.472;2023-09-07T03:31:17;358.50;2329.60
26272;DHT22;13997;48.902;12.472;2023-09-07T03:33:43;358.50;2329.60
26272;DHT22;13997;48.902;12.472;2023-09-07T03:36:08;358.40;2329.60
26272;DHT22;13997;48.902;12.472;2023-09-07T03:38:35;333.70;2329.60
26272;DHT22;13997;48.902;12.472;2023-09-07T03:41:00;358.40;2329.60
26272;DHT22;13997;48.902;12.472;2023-09-07T03:43:26;333.70;2329.60
26272;DHT22;13997;48.902;12.472;2023-09-07T03:45:52;333.70;2329.60
26272;DHT22;13997;48.902;12.472;2023-09-07T03:48:17;333.70;2329.60
26272;DHT22;13997;48.902;12.472;2023-09-07T03:50:43;333.70;2329.60
26272;DHT22;13997;48.902;12.472;2023-09-07T03:53:08;333.60;2329.60
26272;DHT22;13997;48.902;12.472;2023-09-07T03:55:41;333.60;2329.60
26272;DHT22;13997;48.902;12.472;2023-09-07T03:58:11;333.60;2329.60
26272;DHT22;13997;48.902;12.472;2023-09-07T04:00:40;333.60;2329.60
26272;DHT22;13997;48.902;12.472;2023-09-07T04:03:09;333.50;2329.60
26272;DHT22;13997;48.902;12.472;2023-09-07T04:05:37;333.60;2329.60
26272;DHT22;13997;48.902;12.472;2023-09-07T04:08:04;333.50;2329.60
26272;DHT22;13997;48.902;12.472;2023-09-07T04:10:29;333.50;2329.60
26272;DHT22;13997;48.902;12.472;2023-09-07T04:12:55;333.50;2329.60
26272;DHT22;13997;48.902;12.472;2023-09-07T04:15:21;333.40;2329.60
26272;DHT22;13997;48.902;12.472;2023-09-07T04:17:46;333.40;2329.60
26272;DHT22;13997;48.902;12.472;2023-09-07T04:20:12;333.40;2329.60
26272;DHT22;13997;48.902;12.472;2023-09-07T04:22:39;333.30;2329.60
26272;DHT22;13997;48.902;12.472;2023-09-07T04:25:05;333.20;2329.60
26272;DHT22;13997;48.902;12.472;2023-09-07T04:27:31;333.20;2329.60
26272;DHT22;13997;48.902;12.472;2023-09-07T04:29:57;333.20;2329.60
26272;DHT22;13997;48.902;12.472;2023-09-07T04:32:22;333.20;2329.60
26272;DHT22;13997;48.902;12.472;2023-09-07T04:34:55;333.20;2329.60
26272;DHT22;13997;48.902;12.472;2023-09-07T04:37:22;333.10;2329.60
26272;DHT22;13997;48.902;12.472;2023-09-07T04:39:51;333.20;2329.60
26272;DHT22;13997;48.902;12.472;2023-09-07T04:42:17;333.20;2329.60
26272;DHT22;13997;48.902;12.472;2023-09-07T04:44:43;333.20;2329.60
26272;DHT22;13997;48.902;12.472;2023-09-07T04:47:08;333.20;2329.60
26272;DHT22;13997;48.902;12.472;2023-09-07T04:49:34;333.20;2329.60
26272;DHT22;13997;48.902;12.472;2023-09-07T04:51:59;333.10;2329.60
26272;DHT22;13997;48.902;12.472;2023-09-07T04:54:25;333.10;2329.60
26272;DHT22;13997;48.902;12.472;2023-09-07T04:56:50;333.10;2329.60
26272;DHT22;13997;48.902;12.472;2023-09-07T04:59:16;333.10;2329.60
26272;DHT22;13997;48.902;12.472;2023-09-07T05:01:42;333.10;2329.60
26272;DHT22;13997;48.902;12.472;2023-09-07T05:04:08;333.10;2329.60
26272;DHT22;13997;48.902;12.472;2023-09-07T05:06:34;333.10;2329.60
26272;DHT22;13997;48.902;12.472;2023-09-07T05:09:03;333.10;2329.60
26272;DHT22;13997;48.902;12.472;2023-09-07T05:11:28;333.20;2329.60
26272;DHT22;13997;48.902;12.472;2023-09-07T05:13:54;333.20;2329.60
26272;DHT22;13997;48.902;12.472;2023-09-07T05:16:20;333.20;2329.60
26272;DHT22;13997;48.902;12.472;2023-09-07T05:18:45;333.20;2329.60
26272;DHT22;13997;48.902;12.472;2023-09-07T05:21:14;333.20;2329.60
26272;DHT22;13997;48.902;12.472;2023-09-07T05:23:40;333.20;2329.60
26272;DHT22;13997;48.902;12.472;2023-09-07T05:26:06;333.20;2329.60
26272;DHT22;13997;48.902;12.472;2023-09-07T05:28:32;333.30;2329.60
26272;DHT22;13997;48.902;12.472;2023-09-07T05:30:57;333.30;2329.60
26272;DHT22;13997;48.902;12.472;2023-09-07T05:33:23;333.40;2329.60
26272;DHT22;13997;48.902;12.472;2023-09-07T05:35:49;333.40;2329.60
26272;DHT22;13997;48.902;12.472;2023-09-07T05:38:14;333.40;2329.60
26272;DHT22;13997;48.902;12.472;2023-09-07T05:40:42;333.40;2329.60
26272;DHT22;13997;48.902;12.472;2023-09-07T05:43:08;333.50;2329.60
26272;DHT22;13997;48.902;12.472;2023-09-07T05:45:35;333.50;2329.60
26272;DHT22;13997;48.902;12.472;2023-09-07T05:48:05;333.60;2329.60
26272;DHT22;13997;48.902;12.472;2023-09-07T05:50:33;333.60;2329.60
26272;DHT22;13997;48.902;12.472;2023-09-07T05:52:59;333.70;2329.60
26272;DHT22;13997;48.902;12.472;2023-09-07T05:55:24;358.40;2329.60
26272;DHT22;13997;48.902;12.472;2023-09-07T05:57:50;358.50;2329.60
26272;DHT22;13997;48.902;12.472;2023-09-07T06:00:16;358.60;2329.60
26272;DHT22;13997;48.902;12.472;2023-09-07T06:02:43;358.70;2329.60
26272;DHT22;13997;48.902;12.472;2023-09-07T06:05:10;358.70;2329.60
26272;DHT22;13997;48.902;12.472;2023-09-07T06:07:36;358.80;2329.60
26272;DHT22;13997;48.902;12.472;2023-09-07T06:10:02;358.90;2329.60
26272;DHT22;13997;48.902;12.472;2023-09-07T06:12:27;359.00;2329.60
26272;DHT22;13997;48.902;12.472;2023-09-07T06:14:53;359.00;2329.60
26272;DHT22;13997;48.902;12.472;2023-09-07T06:17:18;359.20;2329.60
26272;DHT22;13997;48.902;12.472;2023-09-07T06:19:46;359.20;2329.60
26272;DHT22;13997;48.902;12.472;2023-09-07T06:22:11;384.00;2329.60
26272;DHT22;13997;48.902;12.472;2023-09-07T06:24:37;384.10;2329.60
26272;DHT22;13997;48.902;12.472;2023-09-07T06:27:03;384.10;2329.60
26272;DHT22;13997;48.902;12.472;2023-09-07T06:29:28;384.30;2329.60
26272;DHT22;13997;48.902;12.472;2023-09-07T06:31:54;384.30;2329.60
26272;DHT22;13997;48.902;12.472;2023-09-07T06:34:19;384.40;2329.60
26272;DHT22;13997;48.902;12.472;2023-09-07T06:36:45;384.50;2329.60
26272;DHT22;13997;48.902;12.472;2023-09-07T06:39:11;384.60;2329.60
26272;DHT22;13997;48.902;12.472;2023-09-07T06:41:36;384.80;2329.60
26272;DHT22;13997;48.902;12.472;2023-09-07T06:44:02;384.90;2329.60
26272;DHT22;13997;48.902;12.472;2023-09-07T06:46:27;409.60;2355.20
26272;DHT22;13997;48.902;12.472;2023-09-07T06:48:53;409.80;2355.20
26272;DHT22;13997;48.902;12.472;2023-09-07T06:51:18;409.90;2355.20
26272;DHT22;13997;48.902;12.472;2023-09-07T06:53:44;410.00;2355.20
26272;DHT22;13997;48.902;12.472;2023-09-07T06:56:09;410.10;2355.20
26272;DHT22;13997;48.902;12.472;2023-09-07T06:58:35;410.30;2355.20
26272;DHT22;13997;48.902;12.472;2023-09-07T07:01:01;410.50;2355.20
26272;DHT22;13997;48.902;12.472;2023-09-07T07:03:28;435.30;2355.20
26272;DHT22;13997;48.902;12.472;2023-09-07T07:05:55;435.40;2355.20
26272;DHT22;13997;48.902;12.472;2023-09-07T07:08:20;435.50;2355.20
26272;DHT22;13997;48.902;12.472;2023-09-07T07:10:46;435.70;2355.20
26272;DHT22;13997;48.902;12.472;2023-09-07T07:13:11;435.80;2355.20
26272;DHT22;13997;48.902;12.472;2023-09-07T07:15:37;436.00;2355.20
26272;DHT22;13997;48.902;12.472;2023-09-07T07:18:03;436.10;2355.20
26272;DHT22;13997;48.902;12.472;2023-09-07T07:20:41;460.80;2380.80
26272;DHT22;13997;48.902;12.472;2023-09-07T07:23:06;461.00;2380.80
26272;DHT22;13997;48.902;12.472;2023-09-07T07:25:33;461.10;2380.80
26272;DHT22;13997;48.902;12.472;2023-09-07T07:28:05;461.30;2380.80
26272;DHT22;13997;48.902;12.472;2023-09-07T07:30:35;461.50;2380.80
26272;DHT22;13997;48.902;12.472;2023-09-07T07:33:02;461.60;2380.80
26272;DHT22;13997;48.902;12.472;2023-09-07T07:35:29;486.40;2380.80
26272;DHT22;13997;48.902;12.472;2023-09-07T07:37:55;486.50;2380.80
26272;DHT22;13997;48.902;12.472;2023-09-07T07:40:20;486.60;2380.80
26272;DHT22;13997;48.902;12.472;2023-09-07T07:42:47;486.70;2380.80
26272;DHT22;13997;48.902;12.472;2023-09-07T07:45:13;486.80;2380.80
26272;DHT22;13997;48.902;12.472;2023-09-07T07:47:40;486.90;2380.80
26272;DHT22;13997;48.902;12.472;2023-09-07T07:50:06;487.10;2380.80
26272;DHT22;13997;48.902;12.472;2023-09-07T07:52:32;487.30;2380.80
26272;DHT22;13997;48.902;12.472;2023-09-07T07:54:57;512.00;2380.80
26272;DHT22;13997;48.902;12.472;2023-09-07T07:57:23;512.00;2380.80
26272;DHT22;13997;48.902;12.472;2023-09-07T07:59:48;512.00;2380.80
26272;DHT22;13997;48.902;12.472;2023-09-07T08:02:14;512.00;2380.80
26272;DHT22;13997;48.902;12.472;2023-09-07T08:04:40;512.00;2380.80
26272;DHT22;13997;48.902;12.472;2023-09-07T08:07:06;512.10;2380.80
26272;DHT22;13997;48.902;12.472;2023-09-07T08:09:34;512.20;2380.80
26272;DHT22;13997;48.902;12.472;2023-09-07T08:11:59;512.40;2380.80
26272;DHT22;13997;48.902;12.472;2023-09-07T08:14:28;512.50;2380.80
26272;DHT22;13997;48.902;12.472;2023-09-07T08:16:54;512.60;2380.80
26272;DHT22;13997;48.902;12.472;2023-09-07T08:19:20;512.70;2380.80
26272;DHT22;13997;48.902;12.472;2023-09-07T08:21:46;537.60;2406.40
26272;DHT22;13997;48.902;12.472;2023-09-07T08:24:12;537.70;2406.40
26272;DHT22;13997;48.902;12.472;2023-09-07T08:26:38;538.00;2406.40
26272;DHT22;13997;48.902;12.472;2023-09-07T08:29:04;538.10;2406.40
26272;DHT22;13997;48.902;12.472;2023-09-07T08:31:35;538.20;2406.40
26272;DHT22;13997;48.902;12.472;2023-09-07T08:34:02;538.40;2406.40
26272;DHT22;13997;48.902;12.472;2023-09-07T08:36:29;563.20;2432.00
26272;DHT22;13997;48.902;12.472;2023-09-07T08:38:57;563.30;2432.00
26272;DHT22;13997;48.902;12.472;2023-09-07T08:41:26;563.30;2432.00
26272;DHT22;13997;48.902;12.472;2023-09-07T08:43:53;563.40;2432.00
26272;DHT22;13997;48.902;12.472;2023-09-07T08:46:20;563.40;2432.00
26272;DHT22;13997;48.902;12.472;2023-09-07T08:48:50;563.50;2432.00
26272;DHT22;13997;48.902;12.472;2023-09-07T08:51:23;563.70;2432.00
26272;DHT22;13997;48.902;12.472;2023-09-07T08:53:49;563.80;2432.00
26272;DHT22;13997;48.902;12.472;2023-09-07T08:56:16;564.00;2432.00
26272;DHT22;13997;48.902;12.472;2023-09-07T08:58:43;564.10;2432.00
26272;DHT22;13997;48.902;12.472;2023-09-07T09:01:15;564.10;2432.00
26272;DHT22;13997;48.902;12.472;2023-09-07T09:03:45;564.10;2432.00
26272;DHT22;13997;48.902;12.472;2023-09-07T09:06:14;588.90;2432.00
26272;DHT22;13997;48.902;12.472;2023-09-07T09:08:57;588.90;2432.00
26272;DHT22;13997;48.902;12.472;2023-09-07T09:11:24;589.00;2432.00
26272;DHT22;13997;48.902;12.472;2023-09-07T09:13:52;589.10;2432.00
26272;DHT22;13997;48.902;12.472;2023-09-07T09:16:23;589.20;2432.00
26272;DHT22;13997;48.902;12.472;2023-09-07T09:18:56;589.40;2432.00
26272;DHT22;13997;48.902;12.472;2023-09-07T09:21:23;589.50;2432.00
26272;DHT22;13997;48.902;12.472;2023-09-07T09:23:51;589.60;2432.00
26272;DHT22;13997;48.902;12.472;2023-09-07T09:26:17;589.70;2432.00
26272;DHT22;13997;48.902;12.472;2023-09-07T09:28:46;614.40;2432.00
26272;DHT22;13997;48.902;12.472;2023-09-07T09:31:17;614.50;2432.00
26272;DHT22;13997;48.902;12.472;2023-09-07T09:33:44;614.60;2432.00
26272;DHT22;13997;48.902;12.472;2023-09-07T09:36:12;614.70;2432.00
26272;DHT22;13997;48.902;12.472;2023-09-07T09:38:38;614.90;2432.00
26272;DHT22;13997;48.902;12.472;2023-09-07T09:41:05;615.00;2432.00
26272;DHT22;13997;48.902;12.472;2023-09-07T09:43:31;615.00;2432.00
26272;DHT22;13997;48.902;12.472;2023-09-07T09:45:57;615.20;2432.00
26272;DHT22;13997;48.902;12.472;2023-09-07T09:48:27;640.00;2432.00
26272;DHT22;13997;48.902;12.472;2023-09-07T09:50:53;640.10;2432.00
26272;DHT22;13997;48.902;12.472;2023-09-07T09:53:19;640.10;2432.00
26272;DHT22;13997;48.902;12.472;2023-09-07T09:55:47;640.20;2432.00
26272;DHT22;13997;48.902;12.472;2023-09-07T09:58:16;640.20;2432.00
26272;DHT22;13997;48.902;12.472;2023-09-07T10:00:49;640.30;2432.00
26272;DHT22;13997;48.902;12.472;2023-09-07T10:03:38;640.30;2432.00
26272;DHT22;13997;48.902;12.472;2023-09-07T10:27:10;640.80;2432.00
26272;DHT22;13997;48.902;12.472;2023-09-07T10:29:49;640.80;2432.00
26272;DHT22;13997;48.902;12.472;2023-09-07T10:32:15;640.90;2432.00
26272;DHT22;13997;48.902;12.472;2023-09-07T10:34:42;665.70;2432.00
26272;DHT22;13997;48.902;12.472;2023-09-07T10:37:11;666.00;2432.00
26272;DHT22;13997;48.902;12.472;2023-09-07T10:39:39;666.10;2432.00
26272;DHT22;13997;48.902;12.472;2023-09-07T10:42:05;666.40;2432.00
26272;DHT22;13997;48.902;12.472;2023-09-07T10:44:31;666.50;2432.00
26272;DHT22;13997;48.902;12.472;2023-09-07T10:46:59;691.30;2432.00
26272;DHT22;13997;48.902;12.472;2023-09-07T10:49:25;691.40;2432.00
26272;DHT22;13997;48.902;12.472;2023-09-07T10:51:51;691.50;2432.00
26272;DHT22;13997;48.902;12.472;2023-09-07T10:54:17;691.60;2432.00
26272;DHT22;13997;48.902;12.472;2023-09-07T10:56:45;691.70;2432.00
26272;DHT22;13997;48.902;12.472;2023-09-07T10:59:12;691.70;2432.00
26272;DHT22;13997;48.902;12.472;2023-09-07T11:01:38;691.80;2432.00
26272;DHT22;13997;48.902;12.472;2023-09-07T11:04:03;691.80;2432.00
26272;DHT22;13997;48.902;12.472;2023-09-07T11:06:30;691.90;2432.00
26272;DHT22;13997;48.902;12.472;2023-09-07T11:09:02;692.00;2432.00
26272;DHT22;13997;48.902;12.472;2023-09-07T11:11:31;692.10;2432.00
26272;DHT22;13997;48.902;12.472;2023-09-07T11:13:58;692.10;2432.00
26272;DHT22;13997;48.902;12.472;2023-09-07T11:16:25;692.10;2432.00
26272;DHT22;13997;48.902;12.472;2023-09-07T11:18:54;692.10;2432.00
26272;DHT22;13997;48.902;12.472;2023-09-07T11:21:20;692.10;2432.00
26272;DHT22;13997;48.902;12.472;2023-09-07T11:23:46;692.10;2432.00
26272;DHT22;13997;48.902;12.472;2023-09-07T11:26:13;692.10;2432.00
26272;DHT22;13997;48.902;12.472;2023-09-07T11:28:39;692.10;2380.80
26272;DHT22;13997;48.902;12.472;2023-09-07T11:31:05;692.00;2432.00
26272;DHT22;13997;48.902;12.472;2023-09-07T11:33:32;692.10;2432.00
26272;DHT22;13997;48.902;12.472;2023-09-07T11:35:58;716.90;2432.00
26272;DHT22;13997;48.902;12.472;2023-09-07T11:38:29;716.90;2432.00
26272;DHT22;13997;48.902;12.472;2023-09-07T11:40:55;717.00;2432.00
26272;DHT22;13997;48.902;12.472;2023-09-07T11:43:20;717.10;2432.00
26272;DHT22;13997;48.902;12.472;2023-09-07T11:45:46;717.20;2432.00
26272;DHT22;13997;48.902;12.472;2023-09-07T11:48:12;717.30;2432.00
26272;DHT22;13997;48.902;12.472;2023-09-07T11:50:39;717.30;2432.00
26272;DHT22;13997;48.902;12.472;2023-09-07T11:53:05;717.40;2432.00
26272;DHT22;13997;48.902;12.472;2023-09-07T11:55:31;717.30;2406.40
26272;DHT22;13997;48.902;12.472;2023-09-07T11:57:57;717.30;2432.00
26272;DHT22;13997;48.902;12.472;2023-09-07T12:00:23;717.30;2432.00
26272;DHT22;13997;48.902;12.472;2023-09-07T12:02:49;717.30;2432.00
26272;DHT22;13997;48.902;12.472;2023-09-07T12:05:15;717.40;2432.00
26272;DHT22;13997;48.902;12.472;2023-09-07T12:07:41;717.40;2432.00
26272;DHT22;13997;48.902;12.472;2023-09-07T12:10:10;717.60;2432.00
26272;DHT22;13997;48.902;12.472;2023-09-07T12:12:37;717.70;2432.00
26272;DHT22;13997;48.902;12.472;2023-09-07T12:15:03;717.70;2432.00
26272;DHT22;13997;48.902;12.472;2023-09-07T12:17:31;717.70;2432.00
26272;DHT22;13997;48.902;12.472;2023-09-07T12:19:57;717.70;2432.00
26272;DHT22;13997;48.902;12.472;2023-09-07T12:22:22;717.70;2432.00
26272;DHT22;13997;48.902;12.472;2023-09-07T12:24:49;717.60;2406.40
26272;DHT22;13997;48.902;12.472;2023-09-07T12:27:15;717.50;2432.00
26272;DHT22;13997;48.902;12.472;2023-09-07T12:29:40;717.50;2329.60
26272;DHT22;13997;48.902;12.472;2023-09-07T12:32:06;717.50;2380.80
26272;DHT22;13997;48.902;12.472;2023-09-07T12:34:31;717.50;2380.80
26272;DHT22;13997;48.902;12.472;2023-09-07T12:36:57;717.60;2380.80
26272;DHT22;13997;48.902;12.472;2023-09-07T12:39:23;717.60;2355.20
26272;DHT22;13997;48.902;12.472;2023-09-07T12:41:48;717.60;2380.80
26272;DHT22;13997;48.902;12.472;2023-09-07T12:44:14;717.70;2329.60
26272;DHT22;13997;48.902;12.472;2023-09-07T12:46:39;717.70;2252.80
26272;DHT22;13997;48.902;12.472;2023-09-07T12:49:05;717.70;2355.20
26272;DHT22;13997;48.902;12.472;2023-09-07T12:51:31;717.60;2227.20
26272;DHT22;13997;48.902;12.472;2023-09-07T12:53:57;717.60;2227.20
26272;DHT22;13997;48.902;12.472;2023-09-07T12:56:22;717.70;2252.80
26272;DHT22;13997;48.902;12.472;2023-09-07T12:58:48;717.70;2176.00
26272;DHT22;13997;48.902;12.472;2023-09-07T13:01:14;742.40;2227.20
26272;DHT22;13997;48.902;12.472;2023-09-07T13:03:40;742.50;2252.80
26272;DHT22;13997;48.902;12.472;2023-09-07T13:06:06;742.50;2176.00
26272;DHT22;13997;48.902;12.472;2023-09-07T13:08:32;742.40;2176.00
26272;DHT22;13997;48.902;12.472;2023-09-07T13:10:58;742.40;2201.60
26272;DHT22;13997;48.902;12.472;2023-09-07T13:13:24;742.50;2201.60
26272;DHT22;13997;48.902;12.472;2023-09-07T13:15:56;742.60;2278.40
26272;DHT22;13997;48.902;12.472;2023-09-07T13:18:22;742.70;2252.80
26272;DHT22;13997;48.902;12.472;2023-09-07T13:20:48;742.70;2227.20
26272;DHT22;13997;48.902;12.472;2023-09-07T13:23:15;742.80;2201.60
26272;DHT22;13997;48.902;12.472;2023-09-07T13:25:41;742.90;2227.20
26272;DHT22;13997;48.902;12.472;2023-09-07T13:28:07;743.10;2304.00
26272;DHT22;13997;48.902;12.472;2023-09-07T13:30:32;743.10;2227.20
26272;DHT22;13997;48.902;12.472;2023-09-07T13:32:58;742.80;2150.40
26272;DHT22;13997;48.902;12.472;2023-09-07T13:35:25;742.80;2150.40
26272;DHT22;13997;48.902;12.472;2023-09-07T13:37:50;742.80;2278.40
26272;DHT22;13997;48.902;12.472;2023-09-07T13:40:16;742.70;2201.60
26272;DHT22;13997;48.902;12.472;2023-09-07T13:42:42;742.70;2124.80
26272;DHT22;13997;48.902;12.472;2023-09-07T13:45:08;742.70;2150.40
26272;DHT22;13997;48.902;12.472;2023-09-07T13:47:34;742.70;2150.40
26272;DHT22;13997;48.902;12.472;2023-09-07T13:49:59;742.80;2176.00
26272;DHT22;13997;48.902;12.472;2023-09-07T13:52:25;742.80;2150.40
26272;DHT22;13997;48.902;12.472;2023-09-07T13:54:51;742.90;2227.20
26272;DHT22;13997;48.902;12.472;2023-09-07T13:57:16;742.80;2150.40
26272;DHT22;13997;48.902;12.472;2023-09-07T13:59:42;742.80;2150.40
26272;DHT22;13997;48.902;12.472;2023-09-07T14:02:08;742.80;2124.80
26272;DHT22;13997;48.902;12.472;2023-09-07T14:04:33;742.80;2176.00
26272;DHT22;13997;48.902;12.472;2023-09-07T14:06:59;742.70;2150.40
26272;DHT22;13997;48.902;12.472;2023-09-07T14:09:24;742.70;2176.00
26272;DHT22;13997;48.902;12.472;2023-09-07T14:11:50;742.70;2150.40
26272;DHT22;13997;48.902;12.472;2023-09-07T14:14:16;742.60;2150.40
26272;DHT22;13997;48.902;12.472;2023-09-07T14:16:42;742.50;2176.00
26272;DHT22;13997;48.902;12.472;2023-09-07T14:19:07;742.60;2176.00
26272;DHT22;13997;48.902;12.472;2023-09-07T14:21:33;742.60;2150.40
26272;DHT22;13997;48.902;12.472;2023-09-07T14:23:58;742.70;2150.40
26272;DHT22;13997;48.902;12.472;2023-09-07T14:26:24;742.70;2124.80
26272;DHT22;13997;48.902;12.472;2023-09-07T14:28:50;742.70;2150.40
26272;DHT22;13997;48.902;12.472;2023-09-07T14:31:15;742.60;2099.20
26272;DHT22;13997;48.902;12.472;2023-09-07T14:33:41;742.60;2150.40
26272;DHT22;13997;48.902;12.472;2023-09-07T14:36:08;742.60;2150.40
26272;DHT22;13997;48.902;12.472;2023-09-07T14:38:34;742.60;2124.80
26272;DHT22;13997;48.902;12.472;2023-09-07T14:41:05;742.70;2201.60
26272;DHT22;13997;48.902;12.472;2023-09-07T14:43:31;742.50;2150.40
26272;DHT22;13997;48.902;12.472;2023-09-07T14:45:57;742.50;2176.00
26272;DHT22;13997;48.902;12.472;2023-09-07T14:48:23;742.60;2176.00
26272;DHT22;13997;48.902;12.472;2023-09-07T14:50:48;742.60;2150.40
26272;DHT22;13997;48.902;12.472;2023-09-07T14:53:14;742.60;2176.00